createdAt,value
2023-04-06T00:01:57.123Z,101175.34
2023-04-06T00:04:24.975Z,101167.59
2023-04-06T00:06:52.797Z,101170.53
2023-04-06T00:09:22.036Z,101161.91
2023-04-06T00:11:49.890Z,101171.50
2023-04-06T00:14:18.621Z,101174.94
2023-04-06T00:16:46.585Z,101166.41
2023-04-06T00:19:14.335Z,101169.84
2023-04-06T00:21:42.325Z,101166.41
2023-04-06T00:24:10.396Z,101168.28
2023-04-06T00:26:39.631Z,101157.91
2023-04-06T00:29:07.842Z,101161.44
2023-04-06T00:31:35.992Z,101159.94
2023-04-06T00:34:03.863Z,101148.88
2023-04-06T00:36:31.697Z,101150.41
2023-04-06T00:38:59.515Z,101145.31
2023-04-06T00:41:27.391Z,101136.13
2023-04-06T00:43:57.219Z,101145.44
2023-04-06T00:46:25.230Z,101143.69
2023-04-06T00:48:53.115Z,101138.75
2023-04-06T00:51:21.020Z,101138.75
2023-04-06T00:53:48.838Z,101137.03
2023-04-06T00:56:16.672Z,101137.19
2023-04-06T00:58:44.488Z,101128.84
2023-04-06T01:01:13.759Z,101132.41
2023-04-06T01:03:43.227Z,101124.63
2023-04-06T01:06:11.094Z,101124.59
2023-04-06T01:08:38.985Z,101121.38
2023-04-06T01:11:06.810Z,101133.28
2023-04-06T01:13:34.700Z,101115.34
2023-04-06T01:16:02.725Z,101116.94
2023-04-06T01:18:32.022Z,101110.03
2023-04-06T01:21:00.729Z,101113.31
2023-04-06T01:23:30.005Z,101110.69
2023-04-06T01:25:57.764Z,101108.16
2023-04-06T01:28:25.682Z,101098.00
2023-04-06T01:30:53.626Z,101101.84
2023-04-06T01:33:21.420Z,101096.63
2023-04-06T01:35:49.211Z,101100.25
2023-04-06T01:38:17.236Z,101091.47
2023-04-06T01:40:46.517Z,101095.63
2023-04-06T01:43:14.432Z,101096.50
2023-04-06T01:45:42.307Z,101100.88
2023-04-06T01:48:10.474Z,101095.66
2023-04-06T01:50:38.361Z,101098.25
2023-04-06T01:53:06.315Z,101098.22
2023-04-06T01:55:34.099Z,101096.50
2023-04-06T01:58:03.252Z,101090.34
2023-04-06T02:00:31.341Z,101086.00
2023-04-06T02:02:59.385Z,101091.00
2023-04-06T02:05:27.428Z,101092.69
2023-04-06T02:07:55.236Z,101078.13
2023-04-06T02:10:23.034Z,101091.88
2023-04-06T02:12:50.974Z,101084.94
2023-04-06T02:15:20.181Z,101086.84
2023-04-06T02:17:47.982Z,101073.88
2023-04-06T02:20:15.934Z,101071.13
2023-04-06T02:22:43.702Z,101076.31
2023-04-06T02:25:11.549Z,101076.34
2023-04-06T02:27:39.383Z,101069.50
2023-04-06T02:30:08.535Z,101074.63
2023-04-06T02:32:37.805Z,101057.41
2023-04-06T02:35:06.376Z,101060.97
2023-04-06T02:37:34.165Z,101060.16
2023-04-06T02:40:01.996Z,101066.25
2023-04-06T02:42:30.338Z,101061.03
2023-04-06T02:44:58.159Z,101067.78
2023-04-06T02:47:26.007Z,101056.03
2023-04-06T02:49:55.190Z,101060.06
2023-04-06T02:52:22.998Z,101066.00
2023-04-06T02:54:52.100Z,101060.72
2023-04-06T02:57:20.099Z,101056.38
2023-04-06T02:59:48.315Z,101052.00
2023-04-06T03:02:16.211Z,101047.75
2023-04-06T03:04:44.309Z,101045.41
2023-04-06T03:07:13.507Z,101048.91
2023-04-06T03:09:41.289Z,101048.91
2023-04-06T03:12:10.200Z,101048.00
2023-04-06T03:14:38.254Z,101049.81
2023-04-06T03:17:06.058Z,101048.16
2023-04-06T03:19:33.868Z,101049.75
2023-04-06T03:22:01.684Z,101044.56
2023-04-06T03:24:30.823Z,101030.88
2023-04-06T03:26:58.583Z,101033.59
2023-04-06T03:29:26.402Z,101040.56
2023-04-06T03:31:54.208Z,101037.13
2023-04-06T03:34:22.025Z,101035.44
2023-04-06T03:36:59.533Z,101033.78
2023-04-06T03:39:36.255Z,101034.59
2023-04-06T03:42:04.199Z,101034.66
2023-04-06T03:44:31.980Z,101040.84
2023-04-06T03:46:59.789Z,101042.56
2023-04-06T03:49:27.605Z,101037.41
2023-04-06T03:51:55.420Z,101037.41
2023-04-06T03:54:23.172Z,101040.88
2023-04-06T03:56:52.335Z,101044.41
2023-04-06T03:59:20.472Z,101034.16
2023-04-06T04:01:48.310Z,101041.16
2023-04-06T04:04:16.400Z,101033.19
2023-04-06T04:06:44.227Z,101038.50
2023-04-06T04:09:12.047Z,101031.84
2023-04-06T04:11:39.919Z,101037.66
2023-04-06T04:14:09.104Z,101034.03
2023-04-06T04:16:37.077Z,101033.16
2023-04-06T04:19:04.998Z,101027.19
2023-04-06T04:21:33.817Z,101025.19
2023-04-06T04:24:01.625Z,101035.50
2023-04-06T04:26:29.366Z,101028.44
2023-04-06T04:28:57.236Z,101036.94
2023-04-06T04:31:26.469Z,101029.22
2023-04-06T04:33:54.369Z,101033.59
2023-04-06T04:36:22.191Z,101028.38
2023-04-06T04:38:50.276Z,101030.91
2023-04-06T04:41:18.127Z,101027.59
2023-04-06T04:43:46.582Z,101028.56
2023-04-06T04:46:14.487Z,101025.28
2023-04-06T04:48:43.887Z,101026.00
2023-04-06T04:51:11.769Z,101024.31
2023-04-06T04:53:39.598Z,101028.59
2023-04-06T04:56:07.583Z,101027.69
2023-04-06T04:58:35.384Z,101024.19
2023-04-06T05:01:03.289Z,101030.91
2023-04-06T05:03:31.497Z,101023.09
2023-04-06T05:06:01.034Z,101028.44
2023-04-06T05:08:28.896Z,101027.38
2023-04-06T05:10:56.826Z,101031.88
2023-04-06T05:13:24.769Z,101022.41
2023-04-06T05:15:52.806Z,101033.25
2023-04-06T05:18:20.814Z,101029.63
2023-04-06T05:20:50.877Z,101030.47
2023-04-06T05:23:20.026Z,101022.91
2023-04-06T05:25:47.848Z,101020.91
2023-04-06T05:28:16.907Z,101026.75
2023-04-06T05:30:44.946Z,101022.19
2023-04-06T05:33:12.961Z,101024.91
2023-04-06T05:35:40.847Z,101025.44
2023-04-06T05:38:10.608Z,101014.00
2023-04-06T05:40:41.887Z,101019.81
2023-04-06T05:43:09.796Z,101011.75
2023-04-06T05:45:37.674Z,101020.22
2023-04-06T05:48:05.763Z,101018.19
2023-04-06T05:50:33.573Z,101016.06
2023-04-06T05:53:01.414Z,101011.69
2023-04-06T05:55:29.793Z,101014.88
2023-04-06T05:57:59.019Z,101009.84
2023-04-06T06:00:27.305Z,101008.09
2023-04-06T06:02:55.211Z,101014.56
2023-04-06T06:05:23.141Z,101005.22
2023-04-06T06:07:51.142Z,101005.88
2023-04-06T06:10:19.035Z,101010.69
2023-04-06T06:12:47.100Z,100998.81
2023-04-06T06:15:16.593Z,101009.38
2023-04-06T06:17:44.544Z,101003.66
2023-04-06T06:20:13.253Z,101000.91
2023-04-06T06:22:41.910Z,101001.19
2023-04-06T06:25:10.217Z,101003.81
2023-04-06T06:27:38.037Z,101000.06
2023-04-06T06:30:07.241Z,101006.56
2023-04-06T06:32:36.510Z,101006.28
2023-04-06T06:35:04.742Z,101007.13
2023-04-06T06:37:32.590Z,101012.25
2023-04-06T06:40:00.458Z,101003.44
2023-04-06T06:42:28.295Z,101002.00
2023-04-06T06:44:56.412Z,101009.94
2023-04-06T06:47:24.224Z,101011.50
2023-04-06T06:49:53.441Z,101007.78
2023-04-06T06:52:21.239Z,101006.06
2023-04-06T06:54:49.014Z,100995.09
2023-04-06T06:57:16.952Z,101001.53
2023-04-06T06:59:44.769Z,101000.94
2023-04-06T07:02:12.753Z,100999.13
2023-04-06T07:04:40.669Z,100998.19
2023-04-06T07:07:10.278Z,100992.50
2023-04-06T07:09:38.160Z,100988.06
2023-04-06T07:12:06.063Z,100983.84
2023-04-06T07:14:34.213Z,100981.91
2023-04-06T07:17:02.109Z,100982.59
2023-04-06T07:19:30.116Z,100984.38
2023-04-06T07:21:57.980Z,100980.91
2023-04-06T07:24:27.606Z,100981.59
2023-04-06T07:26:55.547Z,100976.69
2023-04-06T07:29:24.044Z,100981.56
2023-04-06T07:31:51.878Z,100975.31
2023-04-06T07:34:19.728Z,100971.50
2023-04-06T07:36:47.499Z,100983.66
2023-04-06T07:39:15.314Z,100985.13
2023-04-06T07:41:44.596Z,100988.66
2023-04-06T07:44:12.460Z,100987.38
2023-04-06T07:46:40.478Z,100988.53
2023-04-06T07:49:08.404Z,100987.78
2023-04-06T07:51:38.002Z,100979.91
2023-04-06T07:54:06.362Z,100977.72
2023-04-06T07:56:34.478Z,100974.47
2023-04-06T07:59:04.038Z,100975.25
2023-04-06T08:01:31.940Z,100975.38
2023-04-06T08:03:59.985Z,100970.19
2023-04-06T08:06:27.947Z,100973.28
2023-04-06T08:08:56.311Z,100975.88
2023-04-06T08:11:24.227Z,100975.41
2023-04-06T08:13:52.053Z,100962.69
2023-04-06T08:16:21.387Z,100965.91
2023-04-06T08:18:49.302Z,100964.53
2023-04-06T08:21:17.093Z,100969.16
2023-04-06T08:23:44.961Z,100974.13
2023-04-06T08:26:12.895Z,100968.97
2023-04-06T08:28:40.717Z,100969.59
2023-04-06T08:31:08.795Z,100973.56
2023-04-06T08:33:40.059Z,100975.06
2023-04-06T08:36:12.880Z,100970.63
2023-04-06T08:38:41.067Z,100963.50
2023-04-06T08:41:10.395Z,100965.31
2023-04-06T08:43:44.789Z,100946.88
2023-04-06T08:46:13.303Z,100954.78
2023-04-06T08:48:43.386Z,100957.41
2023-04-06T08:51:11.639Z,100938.19
2023-04-06T08:53:40.203Z,100947.13
2023-04-06T08:56:08.334Z,100949.16
2023-04-06T08:58:38.993Z,100946.09
2023-04-06T09:01:09.877Z,100952.59
2023-04-06T09:03:41.352Z,100952.69
2023-04-06T09:06:12.167Z,100949.22
2023-04-06T09:08:41.980Z,100955.00
2023-04-06T09:11:10.163Z,100945.63
2023-04-06T09:13:47.400Z,100961.03
2023-04-06T09:16:15.508Z,100956.63
2023-04-06T09:18:43.657Z,100950.13
2023-04-06T09:21:13.338Z,100946.88
2023-04-06T09:23:41.605Z,100941.63
2023-04-06T09:26:11.032Z,100941.53
2023-04-06T09:28:49.277Z,100934.31
2023-04-06T09:31:17.960Z,100925.66
2023-04-06T09:33:47.497Z,100938.47
2023-04-06T09:36:17.493Z,100928.41
2023-04-06T09:38:56.778Z,100936.38
2023-04-06T09:41:26.243Z,100929.59
2023-04-06T09:43:54.581Z,100929.53
2023-04-06T09:46:24.145Z,100920.25
2023-04-06T09:48:52.250Z,100929.81
2023-04-06T09:51:22.405Z,100915.84
2023-04-06T09:53:54.711Z,100898.81
2023-04-06T09:56:26.777Z,100909.53
2023-04-06T09:58:59.035Z,100902.44
2023-04-06T10:01:28.964Z,100920.72
2023-04-06T10:03:58.929Z,100915.25
2023-04-06T10:06:29.637Z,100912.34
2023-04-06T10:08:58.994Z,100912.44
2023-04-06T10:11:27.039Z,100909.19
2023-04-06T10:13:54.853Z,100893.09
2023-04-06T10:16:23.183Z,100896.06
2023-04-06T10:18:54.411Z,100899.16
2023-04-06T10:21:25.903Z,100902.91
2023-04-06T10:23:58.111Z,100909.78
2023-04-06T10:26:26.100Z,100902.25
2023-04-06T10:28:55.211Z,100888.63
2023-04-06T10:31:27.173Z,100893.97
2023-04-06T10:33:58.670Z,100876.66
2023-04-06T10:36:28.552Z,100892.28
2023-04-06T10:38:59.151Z,100897.63
2023-04-06T10:41:34.287Z,100905.94
2023-04-06T10:44:02.382Z,100888.91
2023-04-06T10:46:31.514Z,100880.63
2023-04-06T10:48:59.626Z,100878.53
2023-04-06T10:51:29.515Z,100883.59
2023-04-06T10:53:59.121Z,100878.25
2023-04-06T10:56:29.089Z,100879.84
2023-04-06T10:58:58.010Z,100886.19
2023-04-06T11:01:27.533Z,100868.59
2023-04-06T11:03:56.810Z,100857.91
2023-04-06T11:06:26.399Z,100863.84
2023-04-06T11:08:54.708Z,100869.22
2023-04-06T11:11:27.274Z,100877.97
2023-04-06T11:13:56.551Z,100866.59
2023-04-06T11:16:25.836Z,100869.72
2023-04-06T11:18:56.602Z,100872.88
2023-04-06T11:21:35.753Z,100873.72
2023-04-06T11:24:08.476Z,100873.13
2023-04-06T11:26:41.347Z,100850.47
2023-04-06T11:29:09.623Z,100870.69
2023-04-06T11:31:42.254Z,100849.88
2023-04-06T11:34:14.356Z,100848.16
2023-04-06T11:36:43.669Z,100859.78
2023-04-06T11:39:12.147Z,100862.34
2023-04-06T11:41:41.687Z,100845.25
2023-04-06T11:44:09.790Z,100857.00
2023-04-06T11:46:37.635Z,100854.13
2023-04-06T11:49:05.671Z,100848.31
2023-04-06T11:51:37.984Z,100844.41
2023-04-06T11:54:05.918Z,100833.88
2023-04-06T11:56:33.780Z,100847.63
2023-04-06T11:59:02.977Z,100837.03
2023-04-06T12:01:34.115Z,100833.00
2023-04-06T12:04:04.968Z,100843.19
2023-04-06T12:06:32.808Z,100839.19
2023-04-06T12:09:00.743Z,100832.13
2023-04-06T12:11:28.650Z,100824.38
2023-04-06T12:13:56.397Z,100828.81
2023-04-06T12:16:25.602Z,100835.44
2023-04-06T12:18:53.556Z,100819.28
2023-04-06T12:21:21.383Z,100805.63
2023-04-06T12:23:49.158Z,100810.78
2023-04-06T12:26:16.966Z,100815.66
2023-04-06T12:28:45.724Z,100803.72
2023-04-06T12:31:17.408Z,100810.03
2023-04-06T12:33:48.930Z,100802.84
2023-04-06T12:36:20.003Z,100803.19
2023-04-06T12:38:49.343Z,100815.38
2023-04-06T12:41:17.454Z,100811.00
2023-04-06T12:43:46.118Z,100818.06
2023-04-06T12:46:14.062Z,100791.63
2023-04-06T12:48:42.150Z,100807.38
2023-04-06T12:51:11.660Z,100815.09
2023-04-06T12:53:39.637Z,100815.50
2023-04-06T12:56:14.077Z,100815.81
2023-04-06T12:58:42.758Z,100797.53
2023-04-06T13:01:11.737Z,100793.16
2023-04-06T13:03:39.698Z,100791.75
2023-04-06T13:06:09.235Z,100781.47
2023-04-06T13:08:39.570Z,100787.16
2023-04-06T13:11:09.823Z,100770.00
2023-04-06T13:13:38.604Z,100787.38
2023-04-06T13:16:08.583Z,100794.91
2023-04-06T13:18:39.299Z,100793.41
2023-04-06T13:21:07.758Z,100801.31
2023-04-06T13:23:35.802Z,100784.97
2023-04-06T13:26:06.577Z,100788.00
2023-04-06T13:28:36.379Z,100792.22
2023-04-06T13:31:04.632Z,100778.19
2023-04-06T13:33:33.531Z,100781.09
2023-04-06T13:36:01.868Z,100781.00
2023-04-06T13:38:29.835Z,100791.25
2023-04-06T13:40:57.822Z,100776.97
2023-04-06T13:43:27.955Z,100780.84
2023-04-06T13:45:57.058Z,100796.41
2023-04-06T13:48:25.250Z,100802.78
2023-04-06T13:50:53.062Z,100800.25
2023-04-06T13:53:20.751Z,100784.66
2023-04-06T13:55:55.028Z,100789.56
2023-04-06T13:58:22.875Z,100791.75
2023-04-06T14:00:52.099Z,100786.47
2023-04-06T14:03:20.561Z,100781.84
2023-04-06T14:05:48.549Z,100796.91
2023-04-06T14:08:16.328Z,100795.44
2023-04-06T14:10:44.128Z,100806.97
2023-04-06T14:13:12.754Z,100791.22
2023-04-06T14:15:40.713Z,100806.13
2023-04-06T14:18:09.871Z,100804.53
2023-04-06T14:20:37.623Z,100804.84
2023-04-06T14:23:05.861Z,100796.03
2023-04-06T14:25:35.461Z,100802.28
2023-04-06T14:28:03.421Z,100803.66
2023-04-06T14:30:32.187Z,100789.66
2023-04-06T14:33:00.748Z,100793.69
2023-04-06T14:35:31.589Z,100798.72
2023-04-06T14:37:59.302Z,100796.63
2023-04-06T14:40:27.224Z,100789.44
2023-04-06T14:42:56.605Z,100792.16
2023-04-06T14:45:24.639Z,100791.53
2023-04-06T14:47:52.535Z,100790.06
2023-04-06T14:50:20.389Z,100798.94
2023-04-06T14:52:49.390Z,100785.41
2023-04-06T14:55:17.264Z,100784.25
2023-04-06T14:57:44.959Z,100789.34
2023-04-06T15:00:14.465Z,100792.16
2023-04-06T15:02:44.215Z,100781.44
2023-04-06T15:05:12.211Z,100777.63
2023-04-06T15:07:39.890Z,100791.06
2023-04-06T15:10:12.274Z,100792.72
2023-04-06T15:12:40.285Z,100801.31
2023-04-06T15:15:08.857Z,100792.47
2023-04-06T15:17:36.610Z,100811.72
2023-04-06T15:20:04.600Z,100803.41
2023-04-06T15:22:32.316Z,100808.81
2023-04-06T15:24:59.994Z,100812.22
2023-04-06T15:27:29.111Z,100809.06
2023-04-06T15:29:56.914Z,100817.63
2023-04-06T15:32:24.589Z,100817.25
2023-04-06T15:34:52.340Z,100823.13
2023-04-06T15:37:20.174Z,100811.97
2023-04-06T15:39:47.931Z,100819.19
2023-04-06T15:42:15.881Z,100822.22
2023-04-06T15:44:44.951Z,100823.06
2023-04-06T15:47:12.781Z,100817.94
2023-04-06T15:49:40.519Z,100827.19
2023-04-06T15:52:08.234Z,100827.00
2023-04-06T15:54:36.500Z,100828.13
2023-04-06T15:57:04.250Z,100828.59
2023-04-06T15:59:31.923Z,100832.31
2023-04-06T16:02:01.047Z,100830.78
2023-04-06T16:04:29.179Z,100832.50
2023-04-06T16:06:56.937Z,100831.38
2023-04-06T16:09:24.676Z,100825.88
2023-04-06T16:11:52.414Z,100832.66
2023-04-06T16:14:21.835Z,100829.28
2023-04-06T16:16:50.305Z,100823.03
2023-04-06T16:19:19.564Z,100834.97
2023-04-06T16:21:47.583Z,100836.91
2023-04-06T16:24:15.346Z,100823.44
2023-04-06T16:26:44.337Z,100829.38
2023-04-06T16:29:12.053Z,100828.53
2023-04-06T16:31:39.757Z,100833.81
2023-04-06T16:34:07.544Z,100818.66
2023-04-06T16:36:37.594Z,100818.00
2023-04-06T16:39:05.370Z,100821.78
2023-04-06T16:41:33.100Z,100822.91
2023-04-06T16:44:00.907Z,100821.28
2023-04-06T16:46:32.104Z,100820.13
2023-04-06T16:49:00.182Z,100820.53
2023-04-06T16:51:28.243Z,100827.69
2023-04-06T16:53:57.279Z,100822.50
2023-04-06T16:56:24.968Z,100824.81
2023-04-06T16:58:52.833Z,100820.19
2023-04-06T17:01:21.206Z,100827.34
2023-04-06T17:03:49.407Z,100813.72
2023-04-06T17:06:17.281Z,100821.72
2023-04-06T17:08:45.895Z,100813.56
2023-04-06T17:11:18.668Z,100821.09
2023-04-06T17:13:50.387Z,100809.56
2023-04-06T17:16:19.496Z,100810.91
2023-04-06T17:18:47.298Z,100808.31
2023-04-06T17:21:16.947Z,100820.22
2023-04-06T17:23:44.995Z,100811.38
2023-04-06T17:26:13.147Z,100808.16
2023-04-06T17:28:42.250Z,100815.38
2023-04-06T17:31:11.174Z,100805.78
2023-04-06T17:33:39.100Z,100810.81
2023-04-06T17:36:09.688Z,100813.88
2023-04-06T17:38:38.377Z,100813.34
2023-04-06T17:41:07.580Z,100801.81
2023-04-06T17:43:35.315Z,100803.44
2023-04-06T17:46:04.461Z,100803.06
2023-04-06T17:48:32.627Z,100804.78
2023-04-06T17:51:00.423Z,100798.09
2023-04-06T17:53:30.546Z,100808.97
2023-04-06T17:55:58.251Z,100805.56
2023-04-06T17:58:26.320Z,100804.91
2023-04-06T18:00:54.187Z,100818.59
2023-04-06T18:03:23.253Z,100810.47
2023-04-06T18:05:51.676Z,100819.91
2023-04-06T18:08:19.339Z,100813.56
2023-04-06T18:10:48.371Z,100807.66
2023-04-06T18:13:16.176Z,100810.63
2023-04-06T18:15:43.887Z,100805.25
2023-04-06T18:18:11.649Z,100817.06
2023-04-06T18:20:42.299Z,100812.34
2023-04-06T18:23:09.975Z,100818.13
2023-04-06T18:25:39.624Z,100813.88
2023-04-06T18:28:07.571Z,100819.84
2023-04-06T18:30:35.580Z,100814.72
2023-04-06T18:33:04.108Z,100813.88
2023-04-06T18:35:31.981Z,100809.59
2023-04-06T18:38:01.269Z,100807.75
2023-04-06T18:40:33.900Z,100813.94
2023-04-06T18:43:02.001Z,100819.97
2023-04-06T18:45:29.710Z,100818.50
2023-04-06T18:47:58.001Z,100813.41
2023-04-06T18:50:25.847Z,100807.19
2023-04-06T18:52:53.836Z,100811.47
2023-04-06T18:55:23.059Z,100814.13
2023-04-06T18:57:50.895Z,100802.94
2023-04-06T19:00:19.027Z,100813.22
2023-04-06T19:02:47.345Z,100807.75
2023-04-06T19:05:15.291Z,100808.03
2023-04-06T19:07:43.148Z,100811.19
2023-04-06T19:10:12.595Z,100807.19
2023-04-06T19:12:41.734Z,100803.16
2023-04-06T19:15:10.715Z,100803.59
2023-04-06T19:17:39.294Z,100809.00
2023-04-06T19:20:08.290Z,100810.72
2023-04-06T19:22:36.786Z,100818.94
2023-04-06T19:25:04.826Z,100813.03
2023-04-06T19:27:32.579Z,100810.97
2023-04-06T19:30:01.844Z,100811.56
2023-04-06T19:32:30.209Z,100813.13
2023-04-06T19:34:59.535Z,100810.72
2023-04-06T19:37:27.265Z,100813.66
2023-04-06T19:39:55.091Z,100804.75
2023-04-06T19:42:23.092Z,100804.50
2023-04-06T19:44:50.774Z,100797.66
2023-04-06T19:47:19.939Z,100808.47
2023-04-06T19:49:47.687Z,100805.69
2023-04-06T19:52:15.456Z,100799.72
2023-04-06T19:54:44.043Z,100808.47
2023-04-06T19:57:12.063Z,100803.97
2023-04-06T19:59:39.908Z,100810.00
2023-04-06T20:02:08.292Z,100796.94
2023-04-06T20:04:37.652Z,100798.38
2023-04-06T20:07:05.402Z,100792.34
2023-04-06T20:09:33.087Z,100795.25
2023-04-06T20:12:01.530Z,100798.25
2023-04-06T20:14:30.546Z,100806.25
2023-04-06T20:16:58.409Z,100802.06
2023-04-06T20:19:26.240Z,100805.13
2023-04-06T20:21:55.651Z,100802.50
2023-04-06T20:24:23.544Z,100801.94
2023-04-06T20:26:52.888Z,100803.78
2023-04-06T20:29:20.690Z,100803.16
2023-04-06T20:31:48.429Z,100802.50
2023-04-06T20:34:16.493Z,100801.78
2023-04-06T20:36:45.243Z,100795.59
2023-04-06T20:39:14.463Z,100785.38
2023-04-06T20:41:42.403Z,100789.41
2023-04-06T20:44:10.292Z,100777.16
2023-04-06T20:46:38.100Z,100787.84
2023-04-06T20:49:06.190Z,100781.53
2023-04-06T20:51:33.883Z,100767.13
2023-04-06T20:54:01.780Z,100770.53
2023-04-06T20:56:30.843Z,100776.28
2023-04-06T20:58:59.716Z,100768.75
2023-04-06T21:01:29.214Z,100771.31
2023-04-06T21:03:57.153Z,100771.78
2023-04-06T21:06:27.398Z,100771.69
2023-04-06T21:08:55.373Z,100767.66
2023-04-06T21:11:23.179Z,100773.38
2023-04-06T21:13:52.300Z,100773.56
2023-04-06T21:16:20.780Z,100771.06
2023-04-06T21:18:48.626Z,100767.22
2023-04-06T21:21:16.414Z,100770.41
2023-04-06T21:23:44.188Z,100759.59
2023-04-06T21:26:13.381Z,100760.88
2023-04-06T21:28:41.129Z,100766.84
2023-04-06T21:31:10.254Z,100761.41
2023-04-06T21:33:37.974Z,100759.66
2023-04-06T21:36:06.873Z,100759.84
2023-04-06T21:38:36.127Z,100752.53
2023-04-06T21:41:03.893Z,100750.81
2023-04-06T21:43:31.699Z,100753.31
2023-04-06T21:45:59.623Z,100750.06
2023-04-06T21:48:28.655Z,100741.63
2023-04-06T21:50:56.386Z,100747.19
2023-04-06T21:53:24.185Z,100747.03
2023-04-06T21:55:51.937Z,100744.41
2023-04-06T21:58:19.710Z,100744.72
2023-04-06T22:00:47.539Z,100747.78
2023-04-06T22:03:15.429Z,100752.38
2023-04-06T22:05:44.677Z,100742.63
2023-04-06T22:08:17.840Z,100736.63
2023-04-06T22:10:53.583Z,100743.56
2023-04-06T22:13:21.343Z,100744.00
2023-04-06T22:15:49.165Z,100737.59
2023-04-06T22:18:16.913Z,100741.38
2023-04-06T22:20:47.087Z,100733.78
2023-04-06T22:23:14.813Z,100735.50
2023-04-06T22:25:42.604Z,100731.41
2023-04-06T22:28:10.352Z,100729.69
2023-04-06T22:30:38.066Z,100717.81
2023-04-06T22:33:05.950Z,100728.41
2023-04-06T22:35:33.906Z,100716.41
2023-04-06T22:38:02.998Z,100725.72
2023-04-06T22:40:30.864Z,100735.88
2023-04-06T22:42:58.600Z,100729.47
2023-04-06T22:45:26.848Z,100730.25
2023-04-06T22:47:54.712Z,100721.16
2023-04-06T22:50:22.947Z,100721.53
2023-04-06T22:52:50.818Z,100732.63
2023-04-06T22:55:19.854Z,100729.28
2023-04-06T22:57:47.625Z,100736.53
2023-04-06T23:00:16.310Z,100725.50
2023-04-06T23:02:44.273Z,100731.81
2023-04-06T23:05:12.215Z,100723.72
2023-04-06T23:07:39.874Z,100731.63
2023-04-06T23:10:08.809Z,100719.56
2023-04-06T23:12:37.974Z,100719.88
2023-04-06T23:15:06.401Z,100728.63
2023-04-06T23:17:34.251Z,100721.72
2023-04-06T23:20:02.035Z,100722.34
2023-04-06T23:22:29.792Z,100726.22
2023-04-06T23:24:57.495Z,100727.22
2023-04-06T23:27:25.495Z,100721.97
2023-04-06T23:29:55.606Z,100732.09
2023-04-06T23:32:23.361Z,100727.53
2023-04-06T23:34:51.132Z,100739.84
2023-04-06T23:37:18.907Z,100732.91
2023-04-06T23:39:48.404Z,100725.91
2023-04-06T23:42:16.191Z,100724.66
2023-04-06T23:44:43.958Z,100723.66
2023-04-06T23:47:13.008Z,100739.97
2023-04-06T23:49:40.730Z,100743.56
2023-04-06T23:52:08.489Z,100731.31
2023-04-06T23:54:36.361Z,100732.19
2023-04-06T23:57:04.381Z,100725.84
2023-04-06T23:59:32.109Z,100730.25
